Terminal Aerodrome Forecast
Issued by NWS

Home | Current Version | Previous Version | Text Only | Print | Product List | Glossary On
Versions: 1 2 3 4 5 6 7 8 9 10 11 12 13 14 15 16 17 18 19 20 21 22 23 24 25 26 27 28 29 30 31 32 33 34 35 36
000
FTAK31 PAFA 261154 AAA
TAFAOR
TAF AMD
PAOR 261154Z 2612/2712 VRB03KT 1 1/2SM -SHSN BKN030 BKN060
      TEMPO 2612/2616 P6SM NSW BKN040
     FM261600 VRB03KT P6SM BKN060 BKN100=

USA.gov is the U.S. government's official web portal to all federal, state and local government web resources and services.